Time;durP1;ratioP1;P1;durP2;ratioP2;P2;SDS_P1;SDS_P2;PMS_P1;PMS_P2;Temp;Humidity;BMP_temperature;BMP_pressure;BME280_temperature;BME280_humidity;BME280_pressure;Samples;Min_cycle;Max_cycle;Signal;HPM_P1;HPM_P2
2023/07/18 00:01:33;;;;;;;8.18;6.10;;;;;;;14.48;100.00;101952.66;5039624;28;20027;-69
2023/07/18 00:04:02;;;;;;;9.05;5.95;;;;;;;14.43;100.00;101959.13;5036749;28;20039;-70
2023/07/18 00:06:32;;;;;;;9.68;6.30;;;;;;;14.42;100.00;101956.50;5038887;28;20029;-67
2023/07/18 00:08:57;;;;;;;8.07;6.47;;;;;;;14.34;100.00;101956.91;5036102;28;20032;-67
2023/07/18 00:11:23;;;;;;;7.82;5.93;;;;;;;14.32;100.00;101957.91;5032417;28;20075;-69
2023/07/18 00:13:49;;;;;;;8.90;7.15;;;;;;;14.26;100.00;101953.72;5033936;28;20165;-69
2023/07/18 00:16:14;;;;;;;9.45;7.18;;;;;;;14.31;100.00;101956.19;5031518;28;20039;-70
2023/07/18 00:18:40;;;;;;;8.52;6.88;;;;;;;14.24;100.00;101966.31;5031443;28;20457;-67
2023/07/18 00:21:07;;;;;;;9.15;7.32;;;;;;;14.17;100.00;101963.06;5034308;28;20025;-71
2023/07/18 00:23:33;;;;;;;9.43;7.07;;;;;;;14.14;100.00;101959.66;5030528;28;20032;-68
2023/07/18 00:26:02;;;;;;;9.40;6.75;;;;;;;14.09;100.00;101964.38;5032624;28;20036;-68
2023/07/18 00:28:28;;;;;;;9.52;6.78;;;;;;;14.04;100.00;101969.06;5038244;28;20033;-67
2023/07/18 00:30:53;;;;;;;8.35;6.65;;;;;;;13.99;100.00;101973.78;5040097;28;20025;-67
2023/07/18 00:33:19;;;;;;;9.38;7.50;;;;;;;13.99;100.00;101981.81;5038263;28;20021;-69
2023/07/18 00:35:44;;;;;;;10.30;6.80;;;;;;;13.94;100.00;101969.50;5037514;28;20090;-70
2023/07/18 00:38:11;;;;;;;9.43;6.50;;;;;;;13.89;100.00;101958.16;5039176;28;20028;-67
2023/07/18 00:40:40;;;;;;;8.50;6.68;;;;;;;13.88;100.00;101971.63;5040558;28;20072;-70
2023/07/18 00:43:13;;;;;;;10.30;6.88;;;;;;;13.84;100.00;101956.66;5044294;28;20037;-68
2023/07/18 00:45:39;;;;;;;10.75;6.43;;;;;;;13.78;100.00;101963.13;5027823;28;20021;-70
2023/07/18 00:48:05;;;;;;;9.60;7.00;;;;;;;13.73;100.00;101959.81;5026019;28;20485;-71
2023/07/18 00:50:31;;;;;;;9.25;6.75;;;;;;;13.69;100.00;101958.22;5036129;28;20068;-68
2023/07/18 00:52:56;;;;;;;9.23;6.80;;;;;;;13.64;100.00;101952.22;5045124;28;20059;-72
2023/07/18 00:55:22;;;;;;;9.93;6.20;;;;;;;13.64;100.00;101946.88;5025893;28;20025;-69
2023/07/18 00:57:48;;;;;;;10.43;6.85;;;;;;;13.69;100.00;101952.84;5025768;28;20040;-68
2023/07/18 01:00:16;;;;;;;8.77;6.53;;;;;;;13.61;100.00;101949.66;5025741;28;20025;-69
2023/07/18 01:02:43;;;;;;;8.30;6.32;;;;;;;13.53;100.00;101950.00;5029894;28;20036;-67
2023/07/18 01:05:13;;;;;;;8.18;5.78;;;;;;;13.49;100.00;101942.19;5025989;28;20124;-72
2023/07/18 01:07:39;;;;;;;8.48;6.68;;;;;;;13.52;100.00;101942.94;5026718;28;20071;-68
2023/07/18 01:10:24;;;;;;;8.80;6.18;;;;;;;13.49;100.00;101947.56;5036496;28;20029;-71
2023/07/18 01:12:58;;;;;;;7.28;6.20;;;;;;;13.44;100.00;101953.13;5026672;28;20454;-67
2023/07/18 01:15:24;;;;;;;;;;;;;;;13.50;100.00;101944.78;5033229;28;20087;-69
2023/07/18 01:17:50;;;;;;;6.90;5.78;;;;;;;13.39;100.00;101936.41;5041755;28;19966;-71
2023/07/18 01:20:27;;;;;;;8.25;5.97;;;;;;;13.40;100.00;101941.69;5038685;28;20032;-70
2023/07/18 01:22:58;;;;;;;8.20;5.57;;;;;;;13.34;100.00;101941.97;5029658;28;20021;-71
2023/07/18 01:25:23;;;;;;;8.02;6.53;;;;;;;13.33;100.00;101937.53;5035513;28;20162;-67
2023/07/18 01:27:51;;;;;;;10.30;6.75;;;;;;;13.30;100.00;101939.50;5040978;28;20032;-71
2023/07/18 01:30:22;;;;;;;9.25;6.22;;;;;;;13.22;100.00;101937.13;5034133;28;20323;-70
2023/07/18 01:32:48;;;;;;;8.70;6.47;;;;;;;13.15;100.00;101930.31;5036753;28;20312;-68
2023/07/18 01:35:15;;;;;;;8.55;6.38;;;;;;;13.15;100.00;101935.66;5033739;28;20033;-69
2023/07/18 01:37:44;;;;;;;7.65;6.18;;;;;;;13.12;100.00;101936.66;5034604;28;20052;-69
2023/07/18 01:40:12;;;;;;;8.85;6.07;;;;;;;13.08;100.00;101927.03;5031518;28;20033;-71
2023/07/18 01:42:39;;;;;;;7.35;6.15;;;;;;;13.05;100.00;101926.31;5037037;28;20449;-71
2023/07/18 01:45:05;;;;;;;8.07;6.03;;;;;;;13.05;100.00;101932.53;5032377;28;20100;-72
2023/07/18 01:47:31;;;;;;;8.55;6.18;;;;;;;12.99;100.00;101915.88;5031486;28;20048;-67
2023/07/18 01:50:04;;;;;;;7.57;5.75;;;;;;;13.00;100.00;101921.19;5036971;28;20037;-71
2023/07/18 01:52:33;;;;;;;6.68;5.97;;;;;;;12.98;100.00;101917.69;5038387;28;20080;-67
2023/07/18 01:55:03;;;;;;;8.30;6.00;;;;;;;12.94;100.00;101922.31;5039762;28;20029;-67
2023/07/18 01:57:31;;;;;;;7.20;5.93;;;;;;;12.93;100.00;101920.56;5033087;28;20051;-69
2023/07/18 01:59:59;;;;;;;9.43;5.88;;;;;;;12.92;100.00;101918.84;5041540;28;20029;-71
2023/07/18 02:02:27;;;;;;;9.82;6.40;;;;;;;12.94;100.00;101913.41;5037606;28;20037;-71
2023/07/18 02:04:52;;;;;;;8.02;5.80;;;;;;;12.95;100.00;101912.47;5036910;28;20065;-71
2023/07/18 02:07:17;;;;;;;6.43;5.63;;;;;;;12.98;100.00;101914.16;5038520;28;20044;-71
2023/07/18 02:09:43;;;;;;;7.75;6.35;;;;;;;12.93;100.00;101909.88;5033678;28;20033;-71
2023/07/18 02:12:08;;;;;;;9.15;5.90;;;;;;;12.88;100.00;101911.91;5035597;28;20421;-69
2023/07/18 02:14:37;;;;;;;9.52;5.43;;;;;;;12.84;100.00;101899.59;5041144;28;20496;-67
2023/07/18 02:17:03;;;;;;;7.50;5.50;;;;;;;12.85;100.00;101895.13;5040782;28;20025;-70
2023/07/18 02:19:29;;;;;;;5.75;5.15;;;;;;;12.84;100.00;101888.06;5036314;28;20058;-69
2023/07/18 02:21:54;;;;;;;7.32;5.70;;;;;;;12.82;100.00;101893.44;5036677;28;20414;-72
2023/07/18 02:24:19;;;;;;;7.35;5.00;;;;;;;12.77;100.00;101900.78;5027740;28;20239;-71
2023/07/18 02:26:45;;;;;;;6.20;5.32;;;;;;;12.73;100.00;101893.84;5034307;28;20130;-67
2023/07/18 02:29:10;;;;;;;8.10;5.50;;;;;;;12.70;100.00;101891.31;5038635;28;20032;-70
2023/07/18 02:31:36;;;;;;;7.65;5.47;;;;;;;12.69;100.00;101900.25;5036428;28;20135;-70
2023/07/18 02:34:01;;;;;;;7.22;5.35;;;;;;;12.69;100.00;101902.94;5038730;28;20049;-67
2023/07/18 02:36:28;;;;;;;6.97;5.28;;;;;;;12.62;100.00;101898.78;5050036;28;20032;-69
2023/07/18 02:38:54;;;;;;;8.48;5.20;;;;;;;12.61;100.00;101899.72;5033751;28;20041;-70
2023/07/18 02:41:19;;;;;;;6.50;4.70;;;;;;;12.52;100.00;101898.31;5037940;28;20039;-72
2023/07/18 02:43:44;;;;;;;7.53;4.85;;;;;;;12.56;100.00;101901.72;5035813;28;20076;-68
2023/07/18 02:46:11;;;;;;;6.38;4.93;;;;;;;12.51;100.00;101907.25;5041126;28;20166;-69
2023/07/18 02:48:36;;;;;;;8.15;5.22;;;;;;;12.49;100.00;101905.56;5029482;28;20050;-69
2023/07/18 02:51:02;;;;;;;9.18;5.32;;;;;;;12.48;100.00;101904.69;5033618;28;20025;-69
2023/07/18 02:53:27;;;;;;;7.20;4.88;;;;;;;12.49;100.00;101898.41;5032952;28;20025;-71
2023/07/18 02:55:53;;;;;;;5.70;4.35;;;;;;;12.46;100.00;101896.78;5031622;28;20043;-67
2023/07/18 02:58:18;;;;;;;10.45;5.38;;;;;;;12.41;100.00;101889.88;5036520;28;20017;-72
2023/07/18 03:00:43;;;;;;;7.10;4.72;;;;;;;12.36;100.00;101898.06;5037767;28;20037;-71
2023/07/18 03:03:09;;;;;;;7.57;5.10;;;;;;;12.36;100.00;101897.19;5038349;28;20048;-68
2023/07/18 03:05:34;;;;;;;5.88;4.60;;;;;;;12.34;100.00;101891.94;5038284;28;20204;-71
2023/07/18 03:08:00;;;;;;;5.82;4.63;;;;;;;12.29;100.00;101901.94;5029015;28;20079;-70
2023/07/18 03:10:25;;;;;;;7.32;4.50;;;;;;;12.32;100.00;101899.13;5034447;28;20018;-70
2023/07/18 03:12:50;;;;;;;7.20;4.88;;;;;;;12.30;100.00;101895.66;5037309;28;20079;-71
2023/07/18 03:15:16;;;;;;;6.43;4.45;;;;;;;12.36;100.00;101895.41;5035078;28;20462;-71
2023/07/18 03:17:42;;;;;;;6.90;4.18;;;;;;;12.32;100.00;101893.78;5034989;28;20040;-69
2023/07/18 03:20:19;;;;;;;6.70;4.65;;;;;;;12.33;100.00;101886.66;5025461;28;20527;-71
2023/07/18 03:22:48;;;;;;;5.38;4.40;;;;;;;12.27;100.00;101893.13;5023320;28;20037;-70
2023/07/18 03:25:16;;;;;;;5.88;4.38;;;;;;;12.19;100.00;101895.22;5033258;28;20063;-70
2023/07/18 03:27:41;;;;;;;6.35;4.20;;;;;;;12.16;100.00;101882.91;5034937;28;21015;-68
2023/07/18 03:30:10;;;;;;;5.82;4.40;;;;;;;12.20;100.00;101892.47;5035021;28;20056;-67
2023/07/18 03:32:37;;;;;;;7.22;4.45;;;;;;;12.16;100.00;101887.34;5037369;28;20562;-71
2023/07/18 03:35:02;;;;;;;5.72;4.38;;;;;;;12.13;100.00;101890.16;5039602;28;20037;-67
2023/07/18 03:37:28;;;;;;;8.23;4.03;;;;;;;12.12;100.00;101883.06;5034693;28;20179;-72
2023/07/18 03:39:53;;;;;;;5.97;4.03;;;;;;;12.05;100.00;101887.78;5030333;28;20028;-68
2023/07/18 03:42:19;;;;;;;5.05;4.30;;;;;;;12.02;100.00;101879.03;5032509;28;20060;-71
2023/07/18 03:44:44;;;;;;;5.70;3.90;;;;;;;12.02;100.00;101879.03;5038146;28;20040;-69
2023/07/18 03:47:11;;;;;;;5.80;4.25;;;;;;;12.02;100.00;101881.72;5034151;28;20044;-70
2023/07/18 03:49:36;;;;;;;5.43;4.20;;;;;;;12.00;100.00;101884.44;5030540;28;20105;-71
2023/07/18 03:52:02;;;;;;;7.53;3.97;;;;;;;12.01;100.00;101883.50;5050583;28;20148;-70
2023/07/18 03:54:28;;;;;;;5.60;4.40;;;;;;;12.01;100.00;101888.84;5033750;28;20096;-71
2023/07/18 03:56:53;;;;;;;6.35;3.95;;;;;;;11.96;100.00;101883.69;5029584;28;20547;-68
2023/07/18 03:59:19;;;;;;;7.03;4.45;;;;;;;11.95;100.00;101878.41;5030256;28;20167;-72
2023/07/18 04:01:44;;;;;;;6.30;4.18;;;;;;;11.95;100.00;101883.75;5035479;28;20063;-72
2023/07/18 04:04:09;;;;;;;6.68;3.92;;;;;;;11.93;100.00;101881.16;5039048;28;20032;-67
2023/07/18 04:06:35;;;;;;;5.80;3.90;;;;;;;11.88;100.00;101885.81;5027599;28;20488;-72
2023/07/18 04:09:00;;;;;;;5.97;3.70;;;;;;;11.85;100.00;101877.91;5035373;28;20043;-68
2023/07/18 04:11:26;;;;;;;7.13;4.13;;;;;;;11.88;100.00;101871.59;5028869;28;20056;-69
2023/07/18 04:13:51;;;;;;;6.65;4.57;;;;;;;11.89;100.00;101870.66;5032699;28;20390;-72
2023/07/18 04:16:16;;;;;;;6.47;3.90;;;;;;;11.88;100.00;101864.47;5034216;28;20029;-71
2023/07/18 04:18:42;;;;;;;5.53;3.90;;;;;;;11.85;100.00;101861.91;5028362;28;20064;-69
2023/07/18 04:21:07;;;;;;;5.00;4.00;;;;;;;11.86;100.00;101863.63;5034313;28;20040;-70
2023/07/18 04:23:33;;;;;;;6.63;4.43;;;;;;;11.85;100.00;101853.91;5029666;28;20036;-68
2023/07/18 04:26:00;;;;;;;6.32;3.80;;;;;;;11.82;100.00;101859.31;5030505;28;20086;-70
2023/07/18 04:28:34;;;;;;;7.15;3.97;;;;;;;11.82;100.00;101870.00;5030437;28;20395;-67
2023/07/18 04:31:04;;;;;;;5.75;3.80;;;;;;;11.81;100.00;101851.38;5033605;28;20026;-68
2023/07/18 04:33:37;;;;;;;5.93;3.70;;;;;;;11.80;100.00;101852.31;5035285;28;20025;-66
2023/07/18 04:36:04;;;;;;;5.68;4.10;;;;;;;11.80;100.00;101866.53;5030411;28;20246;-68
2023/07/18 04:38:34;;;;;;;7.47;3.92;;;;;;;11.79;100.00;101862.13;5030001;28;20033;-67
2023/07/18 04:41:02;;;;;;;7.78;4.38;;;;;;;11.83;100.00;101866.44;5030745;28;20384;-70
2023/07/18 04:43:28;;;;;;;6.15;4.28;;;;;;;11.85;100.00;101859.25;5031365;28;20090;-68
2023/07/18 04:45:53;;;;;;;7.05;4.32;;;;;;;11.86;100.00;101866.31;5028424;28;20044;-68
2023/07/18 04:48:19;;;;;;;8.35;5.03;;;;;;;11.91;100.00;101867.00;5035231;28;20363;-71
2023/07/18 04:50:47;;;;;;;7.68;4.72;;;;;;;11.90;100.00;101867.06;5033250;28;20484;-68
2023/07/18 04:53:13;;;;;;;7.03;4.15;;;;;;;11.95;100.00;101867.72;5034910;28;20060;-69
2023/07/18 04:55:39;;;;;;;5.40;4.57;;;;;;;12.01;100.00;101863.97;5022577;28;20510;-70
2023/07/18 04:58:06;;;;;;;6.53;4.10;;;;;;;12.02;100.00;101861.22;5036324;28;20115;-68
2023/07/18 05:00:33;;;;;;;6.50;4.68;;;;;;;12.12;100.00;101861.72;5030894;28;20029;-67
2023/07/18 05:03:00;;;;;;;6.85;4.70;;;;;;;12.13;100.00;101859.00;5021889;28;20033;-69
2023/07/18 05:05:27;;;;;;;6.28;4.35;;;;;;;12.22;100.00;101849.75;5028358;28;20028;-67
2023/07/18 05:07:53;;;;;;;8.35;5.07;;;;;;;12.30;100.00;101855.63;5034850;28;20025;-71
2023/07/18 05:10:19;;;;;;;10.60;4.70;;;;;;;12.39;100.00;101860.56;5040732;28;20086;-67
2023/07/18 05:12:44;;;;;;;7.82;4.70;;;;;;;12.46;100.00;101859.38;5027801;28;20416;-72
2023/07/18 05:15:10;;;;;;;8.18;4.63;;;;;;;12.52;100.00;101854.72;5037823;28;20108;-67
2023/07/18 05:17:35;;;;;;;7.35;3.72;;;;;;;12.58;100.00;101860.66;5041755;28;20033;-69
2023/07/18 05:20:01;;;;;;;5.72;4.05;;;;;;;12.65;100.00;101858.59;5033838;28;20468;-66
2023/07/18 05:22:27;;;;;;;6.10;4.00;;;;;;;12.74;100.00;101860.84;5036277;28;20264;-66
2023/07/18 05:24:52;;;;;;;6.45;4.03;;;;;;;12.80;100.00;101855.25;5040529;28;20480;-69
2023/07/18 05:27:17;;;;;;;5.90;4.00;;;;;;;12.92;100.00;101860.06;5036970;28;20043;-70
2023/07/18 05:29:43;;;;;;;6.13;3.92;;;;;;;12.99;99.64;101854.41;5047974;28;20084;-70
2023/07/18 05:32:09;;;;;;;4.75;3.72;;;;;;;13.06;99.01;101851.41;5034685;28;20091;-71
2023/07/18 05:34:35;;;;;;;8.98;3.50;;;;;;;13.14;98.49;101859.09;5031400;28;20037;-67
2023/07/18 05:37:01;;;;;;;6.05;4.20;;;;;;;13.17;96.05;101849.13;5035966;28;20036;-68
2023/07/18 05:39:28;;;;;;;6.57;3.95;;;;;;;13.29;97.42;101862.88;5033023;28;20480;-72
2023/07/18 05:41:54;;;;;;;5.70;3.47;;;;;;;13.36;96.18;101859.88;5033827;28;20025;-72
2023/07/18 05:44:20;;;;;;;7.10;3.58;;;;;;;13.41;95.58;101857.84;5038526;28;20025;-68
2023/07/18 05:46:45;;;;;;;6.88;3.78;;;;;;;13.50;96.55;101855.66;5031344;28;20048;-71
2023/07/18 05:49:11;;;;;;;7.35;3.58;;;;;;;13.61;95.13;101854.22;5039021;28;20028;-73
2023/07/18 05:51:36;;;;;;;5.68;3.50;;;;;;;13.77;95.98;101861.53;5032531;28;20376;-72
2023/07/18 05:54:04;;;;;;;6.32;3.60;;;;;;;13.89;95.45;101856.47;5036945;28;20068;-67
2023/07/18 05:56:29;;;;;;;10.07;3.85;;;;;;;13.97;93.45;101853.41;5034683;28;20033;-74
2023/07/18 05:58:55;;;;;;;5.25;3.25;;;;;;;14.09;93.02;101868.88;5036073;28;20059;-70
2023/07/18 06:01:20;;;;;;;4.32;3.15;;;;;;;14.28;94.08;101862.59;5036491;28;20029;-72
2023/07/18 06:03:45;;;;;;;6.18;3.60;;;;;;;14.54;92.12;101866.66;5038167;28;20029;-72
2023/07/18 06:06:11;;;;;;;6.30;3.28;;;;;;;14.63;89.03;101858.13;5035149;28;20043;-68
2023/07/18 06:08:37;;;;;;;6.88;3.35;;;;;;;14.79;89.11;101863.56;5038344;28;20079;-72
2023/07/18 06:11:02;;;;;;;6.32;3.20;;;;;;;14.92;87.87;101865.56;5042012;28;20051;-73
2023/07/18 06:13:28;;;;;;;4.10;3.00;;;;;;;15.07;87.18;101868.34;5036723;28;20021;-69
2023/07/18 06:15:53;;;;;;;5.28;2.97;;;;;;;15.22;86.32;101866.69;5032492;28;20013;-72
2023/07/18 06:18:19;;;;;;;4.57;2.70;;;;;;;15.40;85.17;101863.84;5033991;28;20581;-68
2023/07/18 06:20:45;;;;;;;6.10;3.40;;;;;;;15.59;83.13;101862.81;5038330;28;20036;-73
2023/07/18 06:23:10;;;;;;;5.00;3.42;;;;;;;15.81;81.99;101866.06;5040900;28;20040;-72
2023/07/18 06:25:36;;;;;;;4.82;2.78;;;;;;;15.99;82.33;101866.84;5035652;28;20057;-69
2023/07/18 06:28:04;;;;;;;6.60;2.85;;;;;;;16.21;79.36;101861.09;5039791;28;20059;-70
2023/07/18 06:30:33;;;;;;;5.43;2.67;;;;;;;16.32;78.35;101866.69;5039826;28;20037;-68
2023/07/18 06:32:59;;;;;;;4.88;2.75;;;;;;;16.44;79.45;101860.59;5037898;28;20048;-69
2023/07/18 06:35:25;;;;;;;5.45;2.80;;;;;;;16.55;77.12;101859.09;5037151;28;20024;-70
2023/07/18 06:37:51;;;;;;;7.18;2.70;;;;;;;16.81;77.21;101862.94;5032520;28;20120;-68
2023/07/18 06:40:16;;;;;;;5.22;2.65;;;;;;;16.90;77.83;101859.69;5039609;28;20042;-74
2023/07/18 06:42:42;;;;;;;5.53;2.90;;;;;;;17.14;77.30;101857.31;5036802;28;20039;-68
2023/07/18 06:45:08;;;;;;;5.18;2.65;;;;;;;17.30;76.03;101854.50;5038688;28;20564;-69
2023/07/18 06:47:34;;;;;;;6.18;2.40;;;;;;;17.55;74.31;101860.06;5036654;28;20124;-72
2023/07/18 06:50:00;;;;;;;5.57;2.65;;;;;;;17.62;72.32;101863.22;5038667;28;20035;-74
2023/07/18 06:52:26;;;;;;;3.67;2.60;;;;;;;17.82;73.82;101860.16;5030225;28;20060;-69
2023/07/18 06:54:54;;;;;;;4.15;2.47;;;;;;;18.03;73.06;101857.00;5035539;28;20505;-71
2023/07/18 06:57:20;;;;;;;5.55;2.20;;;;;;;18.06;70.77;101863.06;5040742;28;20125;-70
2023/07/18 06:59:45;;;;;;;3.60;2.42;;;;;;;18.17;71.55;101862.34;5041818;28;20111;-70
2023/07/18 07:02:11;;;;;;;3.97;2.33;;;;;;;18.30;70.84;101860.53;5047175;28;20017;-71
2023/07/18 07:04:39;;;;;;;6.57;2.30;;;;;;;18.53;70.37;101859.00;5039379;28;20183;-70
2023/07/18 07:07:05;;;;;;;5.00;2.72;;;;;;;18.82;69.85;101859.72;5037365;28;20052;-68
2023/07/18 07:09:34;;;;;;;5.18;2.38;;;;;;;19.07;67.81;101863.41;5042531;28;20037;-67
2023/07/18 07:12:00;;;;;;;5.68;2.25;;;;;;;18.99;67.24;101865.78;5046204;28;20111;-70
2023/07/18 07:14:26;;;;;;;5.25;1.90;;;;;;;19.06;67.54;101867.06;5030249;28;20116;-70
2023/07/18 07:16:52;;;;;;;4.20;2.03;;;;;;;19.30;68.14;101868.03;5049358;28;20119;-70
2023/07/18 07:19:18;;;;;;;3.25;1.80;;;;;;;19.30;64.62;101865.31;5042463;28;20108;-71
2023/07/18 07:21:43;;;;;;;4.60;1.80;;;;;;;19.32;64.02;101863.38;5029598;28;20813;-72
2023/07/18 07:24:08;;;;;;;2.85;1.42;;;;;;;19.67;63.83;101865.41;5040728;28;20032;-71
2023/07/18 07:26:37;;;;;;;3.22;1.70;;;;;;;19.94;65.00;101859.81;5026591;28;20036;-72
2023/07/18 07:29:03;;;;;;;2.88;1.52;;;;;;;20.26;62.41;101859.22;5048526;28;20016;-71
2023/07/18 07:31:29;;;;;;;3.25;1.20;;;;;;;20.66;59.29;101850.81;5046260;28;20032;-68
2023/07/18 07:33:54;;;;;;;2.85;1.50;;;;;;;20.89;58.40;101860.69;5046724;28;20518;-72
2023/07/18 07:36:20;;;;;;;4.07;1.52;;;;;;;21.23;58.18;101861.56;5032360;28;20549;-71
2023/07/18 07:38:46;;;;;;;4.28;1.52;;;;;;;21.74;56.72;101863.81;5043306;28;20049;-71
2023/07/18 07:41:12;;;;;;;3.10;1.38;;;;;;;22.06;53.60;101853.00;5030117;28;20052;-69
2023/07/18 07:43:37;;;;;;;2.70;1.15;;;;;;;22.29;53.80;101852.97;5034705;28;20124;-68
2023/07/18 07:46:03;;;;;;;1.25;1.10;;;;;;;22.48;51.52;101852.25;5035157;28;20052;-69
2023/07/18 07:48:28;;;;;;;2.70;0.90;;;;;;;22.65;50.85;101843.53;5031540;28;20099;-67
2023/07/18 07:50:53;;;;;;;2.83;0.90;;;;;;;22.82;49.44;101855.63;5037147;28;20260;-73
2023/07/18 07:53:19;;;;;;;2.47;1.10;;;;;;;23.03;48.56;101855.66;5036125;28;20020;-69
2023/07/18 07:55:44;;;;;;;2.45;1.00;;;;;;;23.48;48.00;101849.84;5039820;28;20028;-72
2023/07/18 07:58:10;;;;;;;2.92;1.23;;;;;;;23.70;46.99;101848.81;5038617;28;20201;-72
2023/07/18 08:00:35;;;;;;;3.10;1.30;;;;;;;23.72;47.57;101852.25;5037082;28;20058;-68
2023/07/18 08:03:01;;;;;;;2.55;1.00;;;;;;;23.76;48.11;101854.56;5037890;28;20090;-67
2023/07/18 08:05:28;;;;;;;2.45;1.00;;;;;;;23.82;47.13;101850.41;5035604;28;20041;-71
2023/07/18 08:07:53;;;;;;;1.55;0.90;;;;;;;24.42;45.71;101853.09;5034419;28;20017;-70
2023/07/18 08:10:18;;;;;;;2.50;1.05;;;;;;;25.09;45.52;101846.69;5030425;28;20039;-73
2023/07/18 08:12:44;;;;;;;2.08;1.40;;;;;;;25.82;43.53;101844.91;5037128;28;20497;-69
2023/07/18 08:15:09;;;;;;;1.33;0.75;;;;;;;26.25;41.16;101840.59;5033415;28;20022;-71
2023/07/18 08:17:35;;;;;;;2.53;0.98;;;;;;;26.81;40.28;101841.25;5042090;28;20024;-68
2023/07/18 08:20:01;;;;;;;2.83;0.80;;;;;;;27.32;38.08;101842.25;5039096;28;20134;-66
2023/07/18 08:22:26;;;;;;;1.55;0.70;;;;;;;27.32;37.34;101842.25;5037696;28;20490;-73
2023/07/18 08:24:51;;;;;;;1.73;0.65;;;;;;;27.25;36.69;101842.03;5038117;28;20036;-70
2023/07/18 08:27:17;;;;;;;2.85;1.13;;;;;;;27.56;36.59;101842.34;5034148;28;20036;-70
2023/07/18 08:29:43;;;;;;;1.55;0.52;;;;;;;27.84;34.63;101846.72;5037965;28;20040;-74
2023/07/18 08:32:08;;;;;;;1.58;0.70;;;;;;;28.13;34.69;101843.53;5032295;28;20025;-75
2023/07/18 08:34:36;;;;;;;1.17;0.50;;;;;;;28.34;34.02;101834.84;5036295;28;20028;-73
2023/07/18 08:37:05;;;;;;;0.93;0.60;;;;;;;28.85;33.90;101830.91;5028263;28;20498;-70
2023/07/18 08:39:34;;;;;;;1.50;0.90;;;;;;;29.55;34.03;101830.19;5035656;28;20025;-69
2023/07/18 08:41:59;;;;;;;2.35;0.60;;;;;;;29.61;31.20;101831.41;5038047;28;20035;-71
2023/07/18 08:44:25;;;;;;;2.15;0.93;;;;;;;29.34;31.46;101829.94;5039989;28;20032;-70
2023/07/18 08:46:50;;;;;;;1.45;0.57;;;;;;;29.26;32.79;101825.34;5046563;28;20056;-70
2023/07/18 08:49:21;;;;;;;2.63;0.65;;;;;;;29.52;32.87;101825.06;5043289;28;20423;-73
2023/07/18 08:51:48;;;;;;;1.38;0.77;;;;;;;30.27;30.99;101821.75;5046669;28;20119;-67
2023/07/18 08:54:14;;;;;;;2.53;0.80;;;;;;;31.11;30.09;101814.22;5033845;28;20109;-65
2023/07/18 08:56:42;;;;;;;1.70;0.90;;;;;;;31.61;29.26;101823.59;5043297;28;20024;-65
2023/07/18 08:59:08;;;;;;;1.67;0.68;;;;;;;31.48;28.07;101812.44;5036311;28;20116;-65
2023/07/18 09:01:33;;;;;;;1.83;0.68;;;;;;;31.41;28.90;101814.25;5035170;28;20356;-64
2023/07/18 09:03:59;;;;;;;1.95;0.70;;;;;;;31.90;27.35;101810.84;5037871;28;20082;-65
2023/07/18 09:06:24;;;;;;;1.67;0.57;;;;;;;31.43;26.49;101814.88;5035949;28;20488;-65
2023/07/18 09:08:54;;;;;;;2.13;0.63;;;;;;;30.52;28.32;101804.00;5035876;28;20305;-65
2023/07/18 09:11:20;;;;;;;0.70;0.50;;;;;;;29.99;28.92;101814.00;5039391;28;20037;-64
2023/07/18 09:13:47;;;;;;;1.08;0.50;;;;;;;30.71;28.36;101810.84;5041996;28;20712;-65
2023/07/18 09:16:22;;;;;;;0.95;0.40;;;;;;;31.94;26.12;101801.13;5040310;28;20017;-65
2023/07/18 09:18:53;;;;;;;2.53;0.50;;;;;;;31.21;26.54;101801.03;5035854;28;20033;-64
2023/07/18 09:21:20;;;;;;;1.23;0.70;;;;;;;29.91;28.25;101804.97;5033232;28;20060;-65
2023/07/18 09:23:47;;;;;;;0.82;0.50;;;;;;;29.10;29.27;101804.34;5049065;28;20036;-65
2023/07/18 09:26:15;;;;;;;0.90;0.50;;;;;;;28.17;30.43;101799.25;5029175;28;20496;-66
2023/07/18 09:28:41;;;;;;;0.75;0.60;;;;;;;27.21;32.52;101786.00;5033361;28;20069;-65
2023/07/18 09:31:17;;;;;;;0.50;0.35;;;;;;;26.87;32.87;101783.22;5038083;28;20344;-65
2023/07/18 09:33:43;;;;;;;0.70;0.50;;;;;;;27.72;32.51;101781.38;5036063;28;20027;-65
2023/07/18 09:36:17;;;;;;;1.95;0.80;;;;;;;28.92;31.58;101790.81;5035025;28;20029;-65
2023/07/18 09:38:44;;;;;;;1.67;0.73;;;;;;;28.99;30.11;101783.63;5044812;28;20432;-65
2023/07/18 09:41:10;;;;;;;1.35;0.60;;;;;;;30.32;30.14;101780.00;5039813;28;20021;-66
2023/07/18 09:43:36;;;;;;;1.75;0.60;;;;;;;31.06;28.05;101780.97;5043182;28;20083;-65
2023/07/18 09:46:03;;;;;;;1.92;0.60;;;;;;;31.83;27.22;101783.19;5037013;28;20033;-65
2023/07/18 09:48:29;;;;;;;2.38;1.10;;;;;;;31.81;27.31;101778.91;5035326;28;20111;-65
2023/07/18 09:50:56;;;;;;;3.17;0.70;;;;;;;31.52;26.89;101782.59;5034003;28;20395;-66
2023/07/18 09:53:23;;;;;;;1.45;0.70;;;;;;;31.17;27.71;101780.47;5049046;28;20028;-65
2023/07/18 09:55:50;;;;;;;1.48;0.50;;;;;;;29.92;27.83;101782.81;5043701;28;20422;-65
2023/07/18 09:58:20;;;;;;;1.92;0.60;;;;;;;28.93;31.11;101783.47;5042983;28;20034;-65
2023/07/18 10:00:47;;;;;;;2.45;1.17;;;;;;;28.51;31.33;101770.88;5039905;28;20072;-65
2023/07/18 10:03:12;;;;;;;1.20;0.68;;;;;;;28.76;29.79;101767.06;5025433;28;20037;-65
2023/07/18 10:05:38;;;;;;;1.90;0.70;;;;;;;28.87;29.31;101774.03;5042919;28;20537;-65
2023/07/18 10:08:06;;;;;;;1.08;0.52;;;;;;;29.55;28.52;101772.56;5040482;28;20025;-65
2023/07/18 10:10:32;;;;;;;1.95;0.70;;;;;;;31.81;27.38;101759.66;5039048;28;20115;-68
2023/07/18 10:12:59;;;;;;;1.92;0.40;;;;;;;33.40;24.50;101752.56;5038624;28;20111;-68
2023/07/18 10:15:26;;;;;;;0.65;0.55;;;;;;;33.77;23.84;101747.63;5039984;28;20028;-67
2023/07/18 10:17:51;;;;;;;0.60;0.40;;;;;;;33.51;22.55;101749.25;5037923;28;20450;-67
2023/07/18 10:20:22;;;;;;;0.57;0.50;;;;;;;31.91;24.86;101739.06;5047018;28;20043;-67
2023/07/18 10:22:48;;;;;;;1.05;0.50;;;;;;;30.58;25.76;101738.34;5038195;28;20682;-67
2023/07/18 10:25:17;;;;;;;1.17;0.40;;;;;;;29.96;27.00;101734.75;5047436;28;20021;-67
2023/07/18 10:27:44;;;;;;;1.58;0.52;;;;;;;30.88;24.55;101733.75;5040751;28;20551;-67
2023/07/18 10:30:11;;;;;;;0.73;0.40;;;;;;;30.51;24.61;101727.25;5047962;28;20145;-67
2023/07/18 10:32:37;;;;;;;1.17;0.47;;;;;;;29.85;26.16;101731.59;5037501;28;20491;-66
2023/07/18 10:35:11;;;;;;;2.65;0.70;;;;;;;28.98;28.12;101729.00;5039594;28;20033;-67
2023/07/18 10:37:41;;;;;;;1.50;0.60;;;;;;;27.83;29.76;101730.13;5037968;28;20083;-67
2023/07/18 10:40:08;;;;;;;1.30;0.57;;;;;;;26.88;30.35;101733.06;5053117;28;20024;-67
2023/07/18 10:42:34;;;;;;;1.02;0.60;;;;;;;26.56;31.92;101725.53;5031686;28;20036;-67
2023/07/18 10:45:05;;;;;;;0.98;0.50;;;;;;;27.44;29.66;101728.00;5040692;28;20075;-67
2023/07/18 10:47:34;;;;;;;1.10;0.55;;;;;;;29.17;28.12;101719.47;5039684;28;20099;-67
2023/07/18 10:50:06;;;;;;;1.88;0.70;;;;;;;30.62;27.13;101715.81;5034806;28;20055;-67
2023/07/18 10:52:32;;;;;;;1.13;0.60;;;;;;;31.47;25.63;101706.16;5037412;28;20029;-68
2023/07/18 10:54:59;;;;;;;1.13;0.52;;;;;;;32.04;25.13;101713.53;5037033;28;20025;-67
2023/07/18 10:57:32;;;;;;;1.27;0.73;;;;;;;32.71;24.02;101714.91;5040275;28;20032;-67
2023/07/18 10:59:59;;;;;;;0.93;0.60;;;;;;;33.90;21.97;101709.84;5042226;28;20153;-67
2023/07/18 11:02:26;;;;;;;1.35;0.60;;;;;;;34.38;21.81;101708.78;5034217;28;20128;-67
2023/07/18 11:04:53;;;;;;;2.60;0.60;;;;;;;35.06;21.04;101708.44;5046407;28;20033;-67
2023/07/18 11:07:31;;;;;;;2.20;0.60;;;;;;;35.58;22.17;101707.34;5035244;28;20063;-67
2023/07/18 11:09:56;;;;;;;1.20;0.60;;;;;;;35.98;20.18;101703.44;5034745;28;20025;-67
2023/07/18 11:12:22;;;;;;;1.48;0.50;;;;;;;36.27;18.92;101710.22;5034440;28;20017;-67
2023/07/18 11:14:47;;;;;;;1.50;0.70;;;;;;;36.86;19.48;101704.06;5040261;28;20040;-66
2023/07/18 11:17:14;;;;;;;1.30;0.60;;;;;;;38.10;18.30;101709.16;5033057;28;20070;-67
2023/07/18 11:19:40;;;;;;;1.75;0.57;;;;;;;38.58;18.41;101699.75;5036233;28;20047;-66